createdAt,value
2018-09-17T00:01:40.387Z,98533.11
2018-09-17T00:04:09.506Z,98524.97
2018-09-17T00:06:38.614Z,98522.77
2018-09-17T00:09:11.194Z,98523.33
2018-09-17T00:11:40.345Z,98524.04
2018-09-17T00:14:10.733Z,98526.17
2018-09-17T00:16:39.862Z,98525.71
2018-09-17T00:19:09.146Z,98526.70
2018-09-17T00:21:38.319Z,98521.55
2018-09-17T00:24:07.981Z,98517.42
2018-09-17T00:26:37.154Z,98520.09
2018-09-17T00:29:06.416Z,98515.64
2018-09-17T00:31:35.974Z,98515.88
2018-09-17T00:34:05.281Z,98514.59
2018-09-17T00:36:34.201Z,98515.71
2018-09-17T00:39:03.385Z,98514.20
2018-09-17T00:41:32.519Z,98513.91
2018-09-17T00:44:01.770Z,98503.41
2018-09-17T00:46:31.971Z,98511.23
2018-09-17T00:49:01.193Z,98505.63
2018-09-17T00:51:30.335Z,98506.73
2018-09-17T00:53:59.551Z,98510.06
2018-09-17T00:56:28.688Z,98515.51
2018-09-17T00:58:58.079Z,98519.09
2018-09-17T01:01:27.230Z,98519.20
2018-09-17T01:03:57.038Z,98515.86
2018-09-17T01:06:26.150Z,98518.06
2018-09-17T01:08:55.294Z,98515.71
2018-09-17T01:11:30.870Z,98512.17
2018-09-17T01:14:00.035Z,98510.66
2018-09-17T01:16:29.735Z,98513.66
2018-09-17T01:18:58.848Z,98512.55
2018-09-17T01:21:27.987Z,98521.23
2018-09-17T01:23:57.112Z,98516.94
2018-09-17T01:26:26.544Z,98526.48
2018-09-17T01:28:55.654Z,98516.59
2018-09-17T01:31:25.366Z,98520.69
2018-09-17T01:33:54.583Z,98520.97
2018-09-17T01:36:24.330Z,98516.28
2018-09-17T01:38:53.990Z,98520.45
2018-09-17T01:41:23.098Z,98519.84
2018-09-17T01:43:52.234Z,98519.52
2018-09-17T01:46:21.358Z,98520.02
2018-09-17T01:48:50.841Z,98513.75
2018-09-17T01:51:19.970Z,98509.20
2018-09-17T01:53:49.405Z,98515.63
2018-09-17T01:56:18.618Z,98517.50
2018-09-17T01:58:47.985Z,98520.05
2018-09-17T02:01:18.774Z,98522.77
2018-09-17T02:03:49.648Z,98524.05
2018-09-17T02:06:19.657Z,98527.50
2018-09-17T02:08:51.070Z,98523.37
2018-09-17T02:11:22.327Z,98521.53
2018-09-17T02:13:53.754Z,98519.35
2018-09-17T02:16:22.941Z,98518.71
2018-09-17T02:18:53.670Z,98523.16
2018-09-17T02:21:22.792Z,98528.91
2018-09-17T02:23:51.916Z,98524.92
2018-09-17T02:26:21.269Z,98528.41
2018-09-17T02:28:50.414Z,98533.38
2018-09-17T02:31:20.229Z,98531.20
2018-09-17T02:33:49.473Z,98529.54
2018-09-17T02:36:18.894Z,98536.39
2018-09-17T02:38:48.133Z,98533.00
2018-09-17T02:41:18.026Z,98538.22
2018-09-17T02:43:47.630Z,98539.99
2018-09-17T02:46:17.137Z,98541.73
2018-09-17T02:48:46.362Z,98544.49
2018-09-17T02:51:15.590Z,98541.27
2018-09-17T02:53:44.867Z,98540.95
2018-09-17T02:56:13.655Z,98538.33
2018-09-17T02:58:42.823Z,98541.12
2018-09-17T03:01:12.388Z,98536.78
2018-09-17T03:03:41.506Z,98536.07
2018-09-17T03:06:10.644Z,98538.08
2018-09-17T03:08:39.761Z,98541.54
2018-09-17T03:11:08.929Z,98545.98
2018-09-17T03:13:38.035Z,98543.80
2018-09-17T03:16:07.897Z,98552.17
2018-09-17T03:18:53.671Z,98542.03
2018-09-17T03:21:23.246Z,98539.70
2018-09-17T03:23:53.297Z,98546.14
2018-09-17T03:26:22.750Z,98547.62
2018-09-17T03:28:52.154Z,98553.83
2018-09-17T03:31:21.369Z,98559.45
2018-09-17T03:33:51.374Z,98557.71
2018-09-17T03:36:20.690Z,98559.87
2018-09-17T03:38:50.241Z,98560.05
2018-09-17T03:41:20.454Z,98560.25
2018-09-17T03:43:52.197Z,98561.36
2018-09-17T03:46:21.477Z,98561.95
2018-09-17T03:48:50.526Z,98567.20
2018-09-17T03:51:20.010Z,98570.09
2018-09-17T03:53:49.118Z,98573.58
2018-09-17T03:56:18.273Z,98571.75
2018-09-17T03:58:47.438Z,98573.25
2018-09-17T04:01:16.586Z,98573.30
2018-09-17T04:03:45.848Z,98575.77
2018-09-17T04:06:15.046Z,98577.04
2018-09-17T04:08:44.325Z,98583.34
2018-09-17T04:11:13.452Z,98581.91
2018-09-17T04:13:42.634Z,98588.72
2018-09-17T04:16:11.817Z,98586.06
2018-09-17T04:18:41.044Z,98590.51
2018-09-17T04:21:10.341Z,98597.89
2018-09-17T04:23:39.781Z,98593.59
2018-09-17T04:26:10.332Z,98592.23
2018-09-17T04:28:40.233Z,98587.72
2018-09-17T04:31:11.741Z,98586.97
2018-09-17T04:33:42.530Z,98590.97
2018-09-17T04:36:12.124Z,98588.05
2018-09-17T04:38:41.289Z,98591.34
2018-09-17T04:41:10.481Z,98583.50
2018-09-17T04:43:39.931Z,98588.97
2018-09-17T04:46:09.113Z,98584.05
2018-09-17T04:48:38.299Z,98585.45
2018-09-17T04:51:07.441Z,98582.41
2018-09-17T04:53:36.613Z,98583.44
2018-09-17T04:56:05.777Z,98589.88
2018-09-17T04:58:34.938Z,98588.95
2018-09-17T05:01:04.313Z,98590.21
2018-09-17T05:03:33.428Z,98589.96
2018-09-17T05:06:02.553Z,98592.64
2018-09-17T05:08:31.673Z,98592.05
2018-09-17T05:11:00.801Z,98600.09
2018-09-17T05:13:30.807Z,98591.00
2018-09-17T05:15:59.849Z,98588.78
2018-09-17T05:18:30.797Z,98582.41
2018-09-17T05:21:00.170Z,98584.51
2018-09-17T05:23:29.429Z,98595.30
2018-09-17T05:25:58.876Z,98596.27
2018-09-17T05:28:28.126Z,98604.66
2018-09-17T05:30:58.681Z,98619.05
2018-09-17T05:33:28.588Z,98619.58
2018-09-17T05:35:57.814Z,98619.13
2018-09-17T05:38:27.945Z,98615.35
2018-09-17T05:40:57.222Z,98607.32
2018-09-17T05:43:26.770Z,98605.80
2018-09-17T05:45:55.898Z,98608.41
2018-09-17T05:48:25.053Z,98607.63
2018-09-17T05:50:54.175Z,98604.00
2018-09-17T05:53:23.294Z,98602.91
2018-09-17T05:55:52.401Z,98601.17
2018-09-17T05:58:21.498Z,98613.71
2018-09-17T06:00:50.679Z,98615.59
2018-09-17T06:03:19.847Z,98614.02
2018-09-17T06:05:49.022Z,98606.92
2018-09-17T06:08:18.102Z,98610.84
2018-09-17T06:10:47.809Z,98606.58
2018-09-17T06:13:17.027Z,98611.24
2018-09-17T06:15:46.170Z,98611.03
2018-09-17T06:18:15.285Z,98615.78
2018-09-17T06:20:44.452Z,98618.92
2018-09-17T06:23:13.585Z,98622.11
2018-09-17T06:25:42.746Z,98612.88
2018-09-17T06:28:12.394Z,98610.53
2018-09-17T06:30:41.502Z,98607.44
2018-09-17T06:33:10.714Z,98612.88
2018-09-17T06:35:39.830Z,98613.25
2018-09-17T06:38:08.941Z,98615.89
2018-09-17T06:40:38.056Z,98611.00
2018-09-17T06:43:07.801Z,98614.94
2018-09-17T06:45:36.992Z,98608.48
2018-09-17T06:48:06.095Z,98615.95
2018-09-17T06:50:35.194Z,98617.70
2018-09-17T06:53:04.793Z,98620.65
2018-09-17T06:55:34.089Z,98611.30
2018-09-17T06:58:04.026Z,98622.39
2018-09-17T07:00:33.154Z,98615.22
2018-09-17T07:03:02.265Z,98618.88
2018-09-17T07:05:31.354Z,98616.95
2018-09-17T07:08:00.483Z,98617.38
2018-09-17T07:10:29.594Z,98609.59
2018-09-17T07:12:58.745Z,98599.24
2018-09-17T07:15:27.988Z,98596.27
2018-09-17T07:17:57.119Z,98603.42
2018-09-17T07:20:26.185Z,98613.62
2018-09-17T07:22:55.336Z,98610.34
2018-09-17T07:25:24.459Z,98605.05
2018-09-17T07:27:53.558Z,98606.75
2018-09-17T07:30:22.742Z,98604.17
2018-09-17T07:32:51.853Z,98605.13
2018-09-17T07:35:21.001Z,98613.30
2018-09-17T07:37:50.295Z,98614.23
2018-09-17T07:40:19.429Z,98616.98
2018-09-17T07:42:48.596Z,98616.33
2018-09-17T07:45:17.826Z,98605.84
2018-09-17T07:47:47.217Z,98604.53
2018-09-17T07:50:16.802Z,98606.55
2018-09-17T07:52:46.319Z,98610.87
2018-09-17T07:55:15.613Z,98606.69
2018-09-17T07:57:45.067Z,98605.97
2018-09-17T08:00:14.214Z,98603.65
2018-09-17T08:02:43.843Z,98602.47
2018-09-17T08:05:13.462Z,98606.30
2018-09-17T08:07:42.590Z,98602.59
2018-09-17T08:10:16.486Z,98597.59
2018-09-17T08:12:45.602Z,98597.53
2018-09-17T08:15:14.714Z,98595.86
2018-09-17T08:17:43.974Z,98589.48
2018-09-17T08:20:13.390Z,98591.59
2018-09-17T08:22:43.913Z,98584.84
2018-09-17T08:25:13.444Z,98585.20
2018-09-17T08:27:42.849Z,98583.77
2018-09-17T08:30:11.991Z,98570.13
2018-09-17T08:32:41.139Z,98580.25
2018-09-17T08:35:10.422Z,98576.52
2018-09-17T08:37:39.556Z,98574.84
2018-09-17T08:40:08.734Z,98575.06
2018-09-17T08:42:37.855Z,98571.96
2018-09-17T08:45:07.969Z,98575.44
2018-09-17T08:47:36.862Z,98573.50
2018-09-17T08:50:06.581Z,98576.86
2018-09-17T08:52:35.749Z,98578.92
2018-09-17T08:55:11.000Z,98580.21
2018-09-17T08:57:40.398Z,98577.21
2018-09-17T09:00:15.289Z,98571.48
2018-09-17T09:02:48.488Z,98570.73
2018-09-17T09:05:22.973Z,98567.94
2018-09-17T09:07:56.505Z,98567.27
2018-09-17T09:10:30.842Z,98568.53
2018-09-17T09:13:05.127Z,98567.76
2018-09-17T09:15:41.426Z,98564.01
2018-09-17T09:18:10.923Z,98560.22
2018-09-17T09:20:40.435Z,98559.95
2018-09-17T09:23:09.978Z,98557.75
2018-09-17T09:25:39.198Z,98557.32
2018-09-17T09:28:08.398Z,98554.27
2018-09-17T09:30:37.602Z,98550.18
2018-09-17T09:33:06.839Z,98548.88
2018-09-17T09:35:36.055Z,98541.17
2018-09-17T09:38:05.358Z,98531.77
2018-09-17T09:40:35.293Z,98534.38
2018-09-17T09:43:04.557Z,98535.44
2018-09-17T09:45:34.349Z,98529.70
2018-09-17T09:48:04.219Z,98520.64
2018-09-17T09:50:33.442Z,98521.89
2018-09-17T09:53:02.671Z,98520.10
2018-09-17T09:55:31.927Z,98522.40
2018-09-17T09:58:01.465Z,98523.68
2018-09-17T10:00:36.378Z,98522.60
2018-09-17T10:03:11.498Z,98515.02
2018-09-17T10:05:40.762Z,98522.82
2018-09-17T10:08:10.150Z,98521.36
2018-09-17T10:10:44.711Z,98517.88
2018-09-17T10:13:19.101Z,98518.61
2018-09-17T10:15:48.459Z,98512.08
2018-09-17T10:18:23.002Z,98509.18
2018-09-17T10:20:51.790Z,98508.67
2018-09-17T10:23:20.973Z,98502.70
2018-09-17T10:25:50.124Z,98500.89
2018-09-17T10:28:19.997Z,98501.64
2018-09-17T10:30:49.154Z,98500.80
2018-09-17T10:33:18.278Z,98494.47
2018-09-17T10:35:48.459Z,98496.56
2018-09-17T10:38:17.576Z,98490.22
2018-09-17T10:40:46.713Z,98492.92
2018-09-17T10:43:15.919Z,98495.70
2018-09-17T10:45:45.311Z,98486.65
2018-09-17T10:48:14.452Z,98481.80
2018-09-17T10:50:43.550Z,98488.89
2018-09-17T10:53:12.642Z,98487.59
2018-09-17T10:55:41.742Z,98481.09
2018-09-17T10:58:10.857Z,98467.52
2018-09-17T11:00:39.961Z,98469.67
2018-09-17T11:03:09.801Z,98461.80
2018-09-17T11:05:40.254Z,98464.58
2018-09-17T11:08:09.657Z,98472.19
2018-09-17T11:10:38.738Z,98466.09
2018-09-17T11:13:07.834Z,98465.86
2018-09-17T11:15:42.126Z,98459.97
2018-09-17T11:18:11.250Z,98457.36
2018-09-17T11:20:40.358Z,98461.70
2018-09-17T11:23:09.514Z,98463.41
2018-09-17T11:25:38.738Z,98454.25
2018-09-17T11:28:08.349Z,98457.62
2018-09-17T11:30:38.128Z,98448.14
2018-09-17T11:33:07.562Z,98452.78
2018-09-17T11:35:36.661Z,98449.91
2018-09-17T11:38:05.815Z,98448.27
2018-09-17T11:40:35.178Z,98439.59
2018-09-17T11:43:04.374Z,98439.33
2018-09-17T11:45:33.478Z,98429.22
2018-09-17T11:48:02.766Z,98424.19
2018-09-17T11:50:32.303Z,98416.02
2018-09-17T11:53:01.450Z,98412.61
2018-09-17T11:55:30.609Z,98403.28
2018-09-17T11:57:59.730Z,98393.91
2018-09-17T12:00:34.102Z,98398.62
2018-09-17T12:03:08.362Z,98391.55
2018-09-17T12:05:42.741Z,98390.41
2018-09-17T12:08:15.525Z,98390.13
2018-09-17T12:10:45.109Z,98384.59
2018-09-17T12:13:14.243Z,98379.56
2018-09-17T12:15:44.309Z,98378.16
2018-09-17T12:18:14.361Z,98377.52
2018-09-17T12:20:43.453Z,98382.52
2018-09-17T12:23:12.572Z,98378.95
2018-09-17T12:25:41.709Z,98375.23
2018-09-17T12:28:10.823Z,98371.63
2018-09-17T12:30:39.929Z,98364.28
2018-09-17T12:33:09.089Z,98359.05
2018-09-17T12:35:38.201Z,98356.23
2018-09-17T12:38:07.306Z,98350.66
2018-09-17T12:40:36.449Z,98350.81
2018-09-17T12:43:05.610Z,98340.50
2018-09-17T12:45:34.730Z,98340.84
2018-09-17T12:48:04.069Z,98336.23
2018-09-17T12:50:33.854Z,98341.06
2018-09-17T12:53:02.962Z,98335.90
2018-09-17T12:55:32.189Z,98337.86
2018-09-17T12:58:01.278Z,98335.44
2018-09-17T13:00:30.513Z,98324.22
2018-09-17T13:02:59.678Z,98323.98
2018-09-17T13:05:28.782Z,98319.09
2018-09-17T13:07:58.693Z,98302.15
2018-09-17T13:10:27.814Z,98301.33
2018-09-17T13:12:57.274Z,98301.13
2018-09-17T13:15:26.634Z,98294.13
2018-09-17T13:17:56.026Z,98296.51
2018-09-17T13:20:25.423Z,98289.67
2018-09-17T13:22:54.721Z,98290.58
2018-09-17T13:25:23.841Z,98291.22
2018-09-17T13:27:52.951Z,98286.85
2018-09-17T13:30:22.373Z,98288.22
2018-09-17T13:32:51.570Z,98288.47
2018-09-17T13:35:20.721Z,98290.81
2018-09-17T13:37:49.904Z,98294.83
2018-09-17T13:40:19.365Z,98288.91
2018-09-17T13:42:49.955Z,98292.17
2018-09-17T13:45:19.082Z,98283.30
2018-09-17T13:47:48.186Z,98275.91
2018-09-17T13:50:17.247Z,98270.19
2018-09-17T13:52:46.405Z,98268.68
2018-09-17T13:55:15.501Z,98267.39
2018-09-17T13:57:46.103Z,98263.79
2018-09-17T14:00:15.175Z,98269.16
2018-09-17T14:02:44.306Z,98268.41
2018-09-17T14:05:13.437Z,98273.91
2018-09-17T14:07:42.533Z,98267.98
2018-09-17T14:10:11.643Z,98264.19
2018-09-17T14:12:41.470Z,98260.32
2018-09-17T14:15:10.602Z,98254.00
2018-09-17T14:17:39.890Z,98252.13
2018-09-17T14:20:09.069Z,98243.74
2018-09-17T14:22:38.176Z,98243.55
2018-09-17T14:25:07.540Z,98243.25
2018-09-17T14:27:36.779Z,98243.14
2018-09-17T14:30:06.496Z,98235.41
2018-09-17T14:32:40.876Z,98229.45
2018-09-17T14:35:10.441Z,98232.56
2018-09-17T14:37:39.542Z,98234.94
2018-09-17T14:40:09.053Z,98230.34
2018-09-17T14:42:38.178Z,98229.14
2018-09-17T14:45:07.341Z,98232.11
2018-09-17T14:47:36.509Z,98227.64
2018-09-17T14:50:05.612Z,98225.92
2018-09-17T14:52:35.426Z,98223.55
2018-09-17T14:55:04.590Z,98226.86
2018-09-17T14:57:33.689Z,98213.94
2018-09-17T15:00:02.858Z,98207.01
2018-09-17T15:02:31.950Z,98202.39
2018-09-17T15:05:01.407Z,98203.09
2018-09-17T15:07:30.631Z,98212.23
2018-09-17T15:10:00.187Z,98202.77
2018-09-17T15:12:29.400Z,98200.16
2018-09-17T15:14:58.540Z,98201.78
2018-09-17T15:17:28.026Z,98205.49
2018-09-17T15:19:57.233Z,98209.17
2018-09-17T15:22:26.691Z,98203.78
2018-09-17T15:24:55.986Z,98198.02
2018-09-17T15:27:25.121Z,98205.20
2018-09-17T15:29:54.277Z,98203.73
2018-09-17T15:32:23.627Z,98195.67
2018-09-17T15:34:52.570Z,98190.84
2018-09-17T15:37:22.145Z,98187.11
2018-09-17T15:39:51.432Z,98190.58
2018-09-17T15:42:20.269Z,98187.59
2018-09-17T15:44:49.494Z,98184.32
2018-09-17T15:47:18.823Z,98185.96
2018-09-17T15:49:47.550Z,98180.98
2018-09-17T15:52:16.215Z,98175.23
2018-09-17T15:54:45.525Z,98178.98
2018-09-17T15:57:14.749Z,98176.30
2018-09-17T15:59:44.310Z,98174.22
2018-09-17T16:02:13.465Z,98170.23
2018-09-17T16:04:42.826Z,98171.11
2018-09-17T16:07:11.933Z,98162.39
2018-09-17T16:09:41.209Z,98165.84
2018-09-17T16:12:10.649Z,98169.75
2018-09-17T16:14:39.806Z,98166.67
2018-09-17T16:17:09.396Z,98174.33
2018-09-17T16:19:38.522Z,98169.80
2018-09-17T16:22:07.630Z,98177.55
2018-09-17T16:24:36.949Z,98174.05
2018-09-17T16:27:06.061Z,98174.27
2018-09-17T16:29:35.938Z,98168.66
2018-09-17T16:32:05.350Z,98167.67
2018-09-17T16:34:34.455Z,98163.72
2018-09-17T16:37:03.542Z,98170.58
2018-09-17T16:39:33.223Z,98171.48
2018-09-17T16:42:02.336Z,98165.60
2018-09-17T16:44:32.159Z,98164.37
2018-09-17T16:47:02.424Z,98166.55
2018-09-17T16:49:31.958Z,98166.37
2018-09-17T16:52:32.598Z,98162.03
2018-09-17T16:55:02.042Z,98164.14
2018-09-17T16:57:31.150Z,98164.14
2018-09-17T17:00:00.261Z,98158.52
2018-09-17T17:02:29.497Z,98163.21
2018-09-17T17:04:58.663Z,98158.33
2018-09-17T17:07:27.709Z,98159.72
2018-09-17T17:09:56.966Z,98153.47
2018-09-17T17:12:26.506Z,98160.17
2018-09-17T17:14:55.725Z,98161.05
2018-09-17T17:17:24.881Z,98156.70
2018-09-17T17:19:54.013Z,98163.50
2018-09-17T17:22:23.116Z,98163.23
2018-09-17T17:24:52.937Z,98165.83
2018-09-17T17:27:22.045Z,98163.72
2018-09-17T17:29:51.170Z,98161.15
2018-09-17T17:32:20.305Z,98160.38
2018-09-17T17:34:49.402Z,98158.05
2018-09-17T17:37:18.513Z,98155.45
2018-09-17T17:39:48.377Z,98156.77
2018-09-17T17:42:17.292Z,98161.35
2018-09-17T17:44:46.478Z,98164.41
2018-09-17T17:47:16.517Z,98167.77
2018-09-17T17:49:46.400Z,98166.67
2018-09-17T17:52:15.820Z,98171.57
2018-09-17T17:54:45.305Z,98172.30
2018-09-17T17:57:14.733Z,98174.14
2018-09-17T17:59:44.422Z,98175.92
2018-09-17T18:02:13.538Z,98177.80
2018-09-17T18:04:43.205Z,98180.33
2018-09-17T18:07:12.350Z,98179.42
2018-09-17T18:09:41.573Z,98188.13
2018-09-17T18:12:10.721Z,98183.99
2018-09-17T18:14:40.495Z,98191.84
2018-09-17T18:17:10.538Z,98198.52
2018-09-17T18:19:39.786Z,98199.50
2018-09-17T18:22:08.916Z,98189.62
2018-09-17T18:24:38.848Z,98190.62
2018-09-17T18:27:08.555Z,98187.23
2018-09-17T18:29:38.192Z,98193.47
2018-09-17T18:32:08.905Z,98192.17
2018-09-17T18:34:38.539Z,98191.02
2018-09-17T18:37:08.461Z,98189.73
2018-09-17T18:39:38.206Z,98199.88
2018-09-17T18:42:07.796Z,98196.85
2018-09-17T18:44:37.217Z,98195.92
2018-09-17T18:47:06.658Z,98195.76
2018-09-17T18:49:36.731Z,98204.84
2018-09-17T18:52:06.062Z,98202.66
2018-09-17T18:54:35.330Z,98209.05
2018-09-17T18:57:05.116Z,98206.59
2018-09-17T18:59:34.348Z,98212.73
2018-09-17T19:02:04.174Z,98210.89
2018-09-17T19:04:34.570Z,98213.62
2018-09-17T19:07:03.682Z,98212.64
2018-09-17T19:09:38.427Z,98209.83
2018-09-17T19:12:07.681Z,98213.17
2018-09-17T19:14:42.422Z,98212.09
2018-09-17T19:17:16.805Z,98210.55
2018-09-17T19:19:46.038Z,98211.42
2018-09-17T19:22:20.458Z,98210.03
2018-09-17T19:24:49.933Z,98201.70
2018-09-17T19:27:19.161Z,98199.63
2018-09-17T19:29:48.343Z,98199.94
2018-09-17T19:32:18.056Z,98201.48
2018-09-17T19:34:47.162Z,98201.47
2018-09-17T19:37:21.774Z,98201.28
2018-09-17T19:39:56.216Z,98199.38
2018-09-17T19:42:25.526Z,98199.53
2018-09-17T19:44:59.986Z,98202.83
2018-09-17T19:47:29.798Z,98200.70
2018-09-17T19:49:58.986Z,98199.02
2018-09-17T19:52:28.033Z,98206.86
2018-09-17T19:54:57.685Z,98210.16
2018-09-17T19:57:31.501Z,98207.20
2018-09-17T20:00:00.713Z,98211.12
2018-09-17T20:02:29.846Z,98207.47
2018-09-17T20:05:04.627Z,98209.37
2018-09-17T20:07:33.735Z,98210.67
2018-09-17T20:10:02.866Z,98205.79
2018-09-17T20:12:31.957Z,98210.43
2018-09-17T20:15:01.218Z,98206.39
2018-09-17T20:17:30.369Z,98212.69
2018-09-17T20:19:59.547Z,98215.31
2018-09-17T20:22:28.655Z,98213.36
2018-09-17T20:24:57.905Z,98209.39
2018-09-17T20:27:27.998Z,98203.17
2018-09-17T20:29:57.529Z,98205.52
2018-09-17T20:32:26.645Z,98204.68
2018-09-17T20:34:56.707Z,98204.89
2018-09-17T20:37:26.434Z,98203.91
2018-09-17T20:39:55.569Z,98204.34
2018-09-17T20:42:24.709Z,98205.64
2018-09-17T20:44:54.521Z,98201.05
2018-09-17T20:47:23.821Z,98202.48
2018-09-17T20:49:53.862Z,98201.07
2018-09-17T20:52:22.936Z,98197.70
2018-09-17T20:54:54.794Z,98200.83
2018-09-17T20:57:24.285Z,98204.28
2018-09-17T20:59:54.117Z,98202.59
2018-09-17T21:02:23.400Z,98198.90
2018-09-17T21:04:52.558Z,98202.41
2018-09-17T21:07:22.242Z,98190.92
2018-09-17T21:09:51.386Z,98195.78
2018-09-17T21:12:20.664Z,98195.84
2018-09-17T21:14:49.755Z,98198.63
2018-09-17T21:17:19.094Z,98192.29
2018-09-17T21:19:48.229Z,98192.81
2018-09-17T21:22:17.499Z,98196.58
2018-09-17T21:24:47.220Z,98191.17
2018-09-17T21:27:16.891Z,98189.73
2018-09-17T21:29:46.145Z,98189.66
2018-09-17T21:32:15.654Z,98195.80
2018-09-17T21:34:44.939Z,98193.59
2018-09-17T21:37:14.155Z,98188.38
2018-09-17T21:39:43.686Z,98190.39
2018-09-17T21:42:12.846Z,98189.75
2018-09-17T21:44:42.478Z,98192.51
2018-09-17T21:47:11.798Z,98198.37
2018-09-17T21:49:40.442Z,98189.84
2018-09-17T21:52:09.649Z,98197.11
2018-09-17T21:54:39.087Z,98193.33
2018-09-17T21:57:07.766Z,98193.70
2018-09-17T21:59:37.215Z,98193.03
2018-09-17T22:02:07.694Z,98185.31
2018-09-17T22:04:36.994Z,98192.36
2018-09-17T22:07:06.345Z,98189.02
2018-09-17T22:09:35.476Z,98191.20
2018-09-17T22:12:04.769Z,98192.26
2018-09-17T22:14:33.890Z,98185.92
2018-09-17T22:17:03.033Z,98187.87
2018-09-17T22:19:32.504Z,98187.71
2018-09-17T22:22:02.601Z,98189.77
2018-09-17T22:24:32.309Z,98189.75
2018-09-17T22:27:01.414Z,98186.16
2018-09-17T22:29:30.550Z,98183.39
2018-09-17T22:31:59.660Z,98184.23
2018-09-17T22:34:29.690Z,98180.55
2018-09-17T22:36:59.076Z,98183.22
2018-09-17T22:39:28.601Z,98182.77
2018-09-17T22:41:57.859Z,98182.38
2018-09-17T22:44:27.917Z,98176.76
2018-09-17T22:46:57.190Z,98173.61
2018-09-17T22:49:26.455Z,98176.69
2018-09-17T22:51:56.438Z,98179.18
2018-09-17T22:54:25.544Z,98174.63
2018-09-17T22:56:54.650Z,98172.03
2018-09-17T22:59:24.070Z,98181.57
2018-09-17T23:01:53.246Z,98176.23
2018-09-17T23:04:22.363Z,98175.45
2018-09-17T23:06:51.782Z,98170.19
2018-09-17T23:09:20.895Z,98172.66
2018-09-17T23:11:49.986Z,98173.89
2018-09-17T23:14:19.114Z,98177.18
2018-09-17T23:16:48.203Z,98171.58
2018-09-17T23:19:17.345Z,98176.64
2018-09-17T23:21:46.429Z,98177.23
2018-09-17T23:24:15.518Z,98173.16
2018-09-17T23:26:44.657Z,98180.39
2018-09-17T23:29:13.766Z,98176.83
2018-09-17T23:31:43.397Z,98176.52
2018-09-17T23:34:12.538Z,98174.86
2018-09-17T23:36:41.721Z,98172.06
2018-09-17T23:39:12.163Z,98179.18
2018-09-17T23:41:41.646Z,98176.49
2018-09-17T23:44:10.752Z,98177.95
2018-09-17T23:46:39.841Z,98182.89
2018-09-17T23:49:08.962Z,98179.48
2018-09-17T23:51:38.060Z,98173.84
2018-09-17T23:54:07.158Z,98170.95
2018-09-17T23:56:36.298Z,98176.78
2018-09-17T23:59:05.786Z,98179.12
